Portada
METAR-TAF:

METAR-TAF

Aeropuertos :

Aeropuerto Internacional Reina Beatrix

Aruba, Aruba

latitud: 12-30N, longitud: 070-01W, altitud: 18 m

Observación

El informe se hizo hace 24 minutos, a las 04:00 UTC
Viento 11 kt del este-noreste
Temperatura 28°C
Humedad 74%
Presión 1010 hPa
Visibilidad 10 km o más
Escasas nubes a una altura de 1800 ft

METAR: TNCA 210400Z 07011KT 9999 FEW018 28/23 Q1010 NOSIG

Hora: 00:24 (04:24 UTC)

Pronóstico

El informe se hizo hace 4 horas y 24 minutos, a las 00:00 UTC
Pronóstico válido del 21 a las 00 UTC al 22 a las 06 UTC
Viento 15 kt del este-noreste
Visibilidad 10 km o más
Nubes dispersas a una altura de 2000 ft
Temporalmente
del 21 a las 04 UTC al 21 a las 16 UTC
Visibilidad: 7000 m
Cielo nuboso a una altura de 1500 ft
chaparrones de lluvia

TAF: TNCA 210000Z 2100/2206 06015KT 9999 SCT020 TEMPO 2104/2116 7000 SHRA BKN015

Observaciones y pronósticos meteorológicos de más de 4000 aeropuertos (mensajes METAR y TAF).

Los puntos amarillos y rojos representan las estaciones disponibles.

Ponga el ratón en el punto deseado para ver el nombre de la estación.

Haga clic para ver las observaciones y los pronósticos meteorológicos.

Para cambiar el mapa : haga clic en los botones verdes con una cruz de color negro para hacer un zoom, en el botón verde con un guión para alejar o en las flechas verdes para mapas adyacentes.


METAR-TAF: